Time;durP1;ratioP1;P1;durP2;ratioP2;P2;SDS_P1;SDS_P2;PMS_P1;PMS_P2;Temp;Humidity;BMP_temperature;BMP_pressure;BME280_temperature;BME280_humidity;BME280_pressure;Samples;Min_cycle;Max_cycle;Signal;HPM_P1;HPM_P2
2024/02/10 00:01:46;;;;;;;0.60;0.60;;;;;;;6.58;73.94;96250.38;5019364;28;20111;-66
2024/02/10 00:04:16;;;;;;;0.50;0.50;;;;;;;6.36;73.60;96223.63;5003486;28;20094;-61
2024/02/10 00:06:45;;;;;;;0.60;0.60;;;;;;;6.44;73.99;96252.84;5005014;28;20497;-61
2024/02/10 00:09:13;;;;;;;0.60;0.60;;;;;;;6.24;74.19;96240.28;5004522;28;20472;-61
2024/02/10 00:11:41;;;;;;;0.50;0.50;;;;;;;6.33;74.28;96251.03;5004344;28;20054;-66
2024/02/10 00:14:11;;;;;;;0.60;0.60;;;;;;;6.05;74.14;96196.28;5002855;28;20526;-66
2024/02/10 00:16:38;;;;;;;0.52;0.52;;;;;;;6.44;74.31;96255.59;5004619;28;20116;-62
2024/02/10 00:19:11;;;;;;;0.60;0.60;;;;;;;6.39;75.11;96253.16;5004173;28;20136;-66
2024/02/10 00:21:38;;;;;;;0.60;0.60;;;;;;;6.24;75.50;96244.97;5004523;28;20046;-61
2024/02/10 00:24:05;;;;;;;0.50;0.50;;;;;;;6.09;75.28;96227.38;5003088;28;20241;-66
2024/02/10 00:26:32;;;;;;;0.50;0.50;;;;;;;6.13;75.38;96247.50;5019261;28;20045;-61
2024/02/10 00:28:59;;;;;;;0.50;0.50;;;;;;;5.95;75.74;96222.41;5004335;28;20064;-66
2024/02/10 00:31:27;;;;;;;0.60;0.60;;;;;;;6.10;75.92;96240.00;5004266;28;20057;-67
2024/02/10 00:33:57;;;;;;;0.50;0.50;;;;;;;6.13;76.04;96244.75;5004026;28;20049;-66
2024/02/10 00:36:24;;;;;;;0.50;0.50;;;;;;;5.98;76.48;96243.66;5004080;28;20823;-61
2024/02/10 00:38:52;;;;;;;0.50;0.50;;;;;;;5.94;77.29;96220.00;5004636;28;20071;-66
2024/02/10 00:41:19;;;;;;;0.50;0.50;;;;;;;6.17;76.82;96240.13;5002864;28;20129;-66
2024/02/10 00:43:47;;;;;;;0.57;0.57;;;;;;;6.21;76.54;96245.69;5004265;28;20050;-61
2024/02/10 00:46:17;;;;;;;0.50;0.50;;;;;;;6.24;75.50;96256.78;5003952;28;20065;-61
2024/02/10 00:48:48;;;;;;;0.50;0.50;;;;;;;5.75;75.48;96196.00;5002418;28;20089;-63
2024/02/10 00:51:15;;;;;;;0.50;0.50;;;;;;;5.63;75.33;96173.38;5002165;28;20054;-66
2024/02/10 00:53:42;;;;;;;0.60;0.60;;;;;;;5.70;75.62;96212.78;5004052;28;20072;-60
2024/02/10 00:56:10;;;;;;;0.50;0.50;;;;;;;6.08;76.57;96253.28;5003711;28;20050;-61
2024/02/10 00:58:40;;;;;;;0.50;0.50;;;;;;;6.00;77.02;96246.84;5003996;28;20324;-63
2024/02/10 01:01:12;;;;;;;0.55;0.55;;;;;;;5.36;76.95;96139.44;5000483;28;20049;-62
2024/02/10 01:03:44;;;;;;;0.50;0.50;;;;;;;5.96;77.22;96239.66;5011523;28;20087;-64
2024/02/10 01:06:16;;;;;;;0.50;0.50;;;;;;;5.81;77.75;96243.25;5004249;28;20058;-61
2024/02/10 01:08:48;;;;;;;0.50;0.50;;;;;;;5.76;77.72;96251.75;5004065;28;20068;-66
2024/02/10 01:11:17;;;;;;;0.50;0.50;;;;;;;5.32;78.17;96181.69;5003667;28;20049;-66
2024/02/10 01:13:46;;;;;;;0.50;0.50;;;;;;;5.78;76.66;96241.22;5003603;28;20062;-62
2024/02/10 01:16:17;;;;;;;0.50;0.50;;;;;;;5.79;75.94;96251.84;5002545;28;20050;-61
2024/02/10 01:18:45;;;;;;;0.50;0.50;;;;;;;5.59;77.36;96243.91;5004021;28;20054;-61
2024/02/10 01:21:12;;;;;;;0.50;0.50;;;;;;;5.68;77.91;96250.81;5003474;28;20054;-64
2024/02/10 01:23:42;;;;;;;0.50;0.50;;;;;;;5.05;78.62;96171.66;5002202;28;20049;-62
2024/02/10 01:26:09;;;;;;;0.43;0.43;;;;;;;5.10;78.59;96187.84;5003643;28;20425;-62
2024/02/10 01:28:36;;;;;;;0.50;0.50;;;;;;;5.07;77.28;96158.38;5003663;28;20046;-62
2024/02/10 01:31:08;;;;;;;0.50;0.50;;;;;;;5.27;76.87;96207.47;5003667;28;20053;-67
2024/02/10 01:33:34;;;;;;;0.50;0.50;;;;;;;5.27;76.51;96198.44;5007669;28;20065;-67
2024/02/10 01:36:06;;;;;;;0.55;0.55;;;;;;;5.20;77.67;96201.03;5007284;28;20137;-66
2024/02/10 01:38:37;;;;;;;0.50;0.50;;;;;;;5.12;77.91;96185.53;5007220;28;20416;-68
2024/02/10 01:41:04;;;;;;;0.50;0.50;;;;;;;5.68;77.75;96255.50;5007005;28;20081;-62
2024/02/10 01:43:31;;;;;;;0.50;0.50;;;;;;;4.86;76.38;96124.94;5007431;28;20081;-62
2024/02/10 01:45:58;;;;;;;0.50;0.50;;;;;;;5.03;77.97;96157.47;5005855;28;20539;-66
2024/02/10 01:48:25;;;;;;;0.50;0.50;;;;;;;5.61;77.71;96244.38;5007643;28;20049;-62
2024/02/10 01:50:52;;;;;;;0.45;0.45;;;;;;;5.11;78.26;96175.69;5026613;28;20084;-67
2024/02/10 01:53:19;;;;;;;0.50;0.50;;;;;;;5.59;77.74;96225.50;5026940;28;20097;-67
2024/02/10 01:55:46;;;;;;;0.50;0.50;;;;;;;5.73;76.86;96236.00;5026536;28;20060;-62
2024/02/10 01:58:15;;;;;;;0.50;0.50;;;;;;;5.40;76.69;96177.97;5026442;28;20053;-63
2024/02/10 02:00:42;;;;;;;0.50;0.50;;;;;;;5.73;77.95;96236.00;5025868;28;20136;-61
2024/02/10 02:03:09;;;;;;;0.50;0.50;;;;;;;5.78;77.63;96221.97;5008787;28;20057;-67
2024/02/10 02:05:39;;;;;;;0.50;0.50;;;;;;;5.66;77.53;96242.13;5026733;28;20060;-62
2024/02/10 02:08:06;;;;;;;0.50;0.50;;;;;;;5.78;77.15;96232.97;5027135;28;20136;-66
2024/02/10 02:10:33;;;;;;;0.50;0.50;;;;;;;5.08;77.53;96149.78;5025317;28;20055;-62
2024/02/10 02:13:00;;;;;;;0.50;0.50;;;;;;;5.68;77.98;96228.84;5026308;28;20054;-65
2024/02/10 02:15:29;;;;;;;0.50;0.50;;;;;;;5.58;77.42;96212.91;5008541;28;20491;-62
2024/02/10 02:17:57;;;;;;;0.50;0.50;;;;;;;5.40;77.85;96191.69;5026626;28;20053;-67
2024/02/10 02:20:25;;;;;;;0.50;0.50;;;;;;;5.69;77.87;96218.66;5026783;28;21324;-68
2024/02/10 02:22:53;;;;;;;0.50;0.50;;;;;;;5.54;78.10;96200.25;5026205;28;20054;-67
2024/02/10 02:25:21;;;;;;;0.50;0.50;;;;;;;5.64;78.32;96205.19;5026303;28;20083;-63
2024/02/10 02:27:49;;;;;;;0.40;0.40;;;;;;;5.75;78.00;96217.22;5026399;28;20049;-67
2024/02/10 02:30:16;;;;;;;0.50;0.50;;;;;;;5.72;78.11;96206.94;5026195;28;20141;-62
2024/02/10 02:32:43;;;;;;;0.50;0.50;;;;;;;5.58;77.67;96195.66;5026398;28;20053;-67
2024/02/10 02:35:10;;;;;;;0.50;0.50;;;;;;;5.60;78.89;96207.03;5025766;28;20128;-62
2024/02/10 02:37:42;;;;;;;0.45;0.45;;;;;;;5.69;78.23;96213.16;5026111;28;20075;-62
2024/02/10 02:40:14;;;;;;;0.50;0.50;;;;;;;5.74;77.93;96213.66;5025625;28;20057;-62
2024/02/10 02:42:41;;;;;;;0.50;0.50;;;;;;;5.23;77.78;96153.66;5025962;28;20072;-66
2024/02/10 02:45:10;;;;;;;0.50;0.50;;;;;;;5.43;78.02;96221.97;5025739;28;20045;-66
2024/02/10 02:47:38;;;;;;;0.43;0.43;;;;;;;5.11;79.03;96227.84;5026045;28;20053;-68
2024/02/10 02:50:10;;;;;;;0.50;0.50;;;;;;;5.01;79.93;96225.66;5025061;28;20144;-67
2024/02/10 02:52:37;;;;;;;0.50;0.50;;;;;;;5.11;79.92;96230.59;5026004;28;20049;-66
2024/02/10 02:55:08;;;;;;;0.45;0.45;;;;;;;5.17;79.34;96229.19;5025637;28;20058;-67
2024/02/10 02:57:35;;;;;;;0.50;0.50;;;;;;;2.29;78.50;96023.91;5025782;28;20045;-62
2024/02/10 03:00:02;;;;;;;0.40;0.40;;;;;;;5.24;79.73;96240.34;5026041;28;20053;-61
2024/02/10 03:02:34;;;;;;;0.50;0.50;;;;;;;5.17;80.16;96223.72;5024347;28;20057;-62
2024/02/10 03:05:01;;;;;;;0.50;0.50;;;;;;;5.37;79.38;96244.56;5008557;28;20515;-62
2024/02/10 03:07:30;;;;;;;0.50;0.50;;;;;;;5.44;79.51;96245.53;5025778;28;20489;-67
2024/02/10 03:09:57;;;;;;;0.50;0.50;;;;;;;5.51;79.53;96251.22;5007568;28;20053;-66
2024/02/10 03:12:24;;;;;;;0.50;0.50;;;;;;;5.33;78.83;96218.97;5025108;28;20516;-62
2024/02/10 03:14:50;;;;;;;0.50;0.50;;;;;;;4.52;78.52;96097.09;5025416;28;20057;-67
2024/02/10 03:17:17;;;;;;;0.50;0.50;;;;;;;5.49;78.10;96247.22;5007206;28;20535;-67
2024/02/10 03:19:46;;;;;;;0.50;0.50;;;;;;;4.99;78.25;96206.81;5024967;28;20052;-62
2024/02/10 03:22:13;;;;;;;0.50;0.50;;;;;;;5.32;78.83;96258.56;5007665;28;20053;-62
2024/02/10 03:24:47;;;;;;;0.50;0.50;;;;;;;5.32;79.12;96236.59;5024926;28;20123;-62
2024/02/10 03:27:15;;;;;;;0.50;0.50;;;;;;;5.46;78.87;96242.44;5007257;28;20053;-67
2024/02/10 03:29:42;;;;;;;0.50;0.50;;;;;;;5.39;79.08;96247.78;5025411;28;20095;-68
2024/02/10 03:32:09;;;;;;;0.50;0.50;;;;;;;5.21;79.71;96205.38;5025081;28;20140;-63
2024/02/10 03:34:35;;;;;;;0.50;0.50;;;;;;;5.42;79.64;96230.59;5006949;28;20060;-62
2024/02/10 03:37:02;;;;;;;0.50;0.50;;;;;;;5.44;79.60;96239.25;5007210;28;20049;-62
2024/02/10 03:39:29;;;;;;;0.50;0.50;;;;;;;5.40;79.21;96243.88;5006946;28;20045;-62
2024/02/10 03:41:56;;;;;;;0.50;0.50;;;;;;;5.43;78.07;96237.66;5024588;28;20045;-62
2024/02/10 03:44:23;;;;;;;0.50;0.50;;;;;;;5.06;76.18;96178.75;5024889;28;20298;-62
2024/02/10 03:46:52;;;;;;;0.50;0.50;;;;;;;5.23;76.22;96230.50;5024026;28;20153;-62
2024/02/10 03:49:19;;;;;;;0.47;0.47;;;;;;;5.10;77.16;96234.50;5024238;28;20889;-62
2024/02/10 03:51:46;;;;;;;0.47;0.47;;;;;;;5.03;77.76;96234.31;5024610;28;20057;-67
2024/02/10 03:54:13;;;;;;;0.50;0.50;;;;;;;5.13;78.05;96231.84;5023232;28;20508;-62
2024/02/10 03:56:46;;;;;;;0.50;0.50;;;;;;;4.84;78.29;96182.13;5006657;28;20059;-67
2024/02/10 03:59:15;;;;;;;0.50;0.50;;;;;;;5.05;77.94;96204.56;5024743;28;20049;-67
2024/02/10 04:01:45;;;;;;;0.50;0.50;;;;;;;5.04;77.66;96234.00;5024230;28;20124;-67
2024/02/10 04:04:18;;;;;;;0.40;0.40;;;;;;;4.83;78.76;96221.66;5006569;28;20468;-67
2024/02/10 04:06:46;;;;;;;;;;;;;;;5.00;77.88;96229.53;5025185;28;20143;-64
2024/02/10 04:09:13;;;;;;;0.47;0.47;;;;;;;4.76;79.64;96246.19;5006499;28;19925;-64
2024/02/10 04:11:40;;;;;;;0.50;0.50;;;;;;;4.72;79.60;96261.75;5024499;28;20056;-67
2024/02/10 04:14:07;;;;;;;0.50;0.50;;;;;;;4.68;80.93;96278.91;5024261;28;20064;-67
2024/02/10 04:16:38;;;;;;;0.50;0.50;;;;;;;4.38;81.01;96231.06;5023834;28;20505;-68
2024/02/10 04:19:05;;;;;;;0.45;0.45;;;;;;;4.80;81.86;96286.28;5024218;28;20132;-62
2024/02/10 04:21:32;;;;;;;0.40;0.40;;;;;;;4.75;82.19;96282.97;5022614;28;20072;-61
2024/02/10 04:23:59;;;;;;;0.40;0.40;;;;;;;3.93;82.60;96142.94;5023874;28;20068;-66
2024/02/10 04:26:26;;;;;;;0.50;0.50;;;;;;;4.83;82.39;96285.56;5023751;28;20045;-62
2024/02/10 04:28:52;;;;;;;0.40;0.40;;;;;;;4.71;82.22;96241.72;5023710;28;20500;-61
2024/02/10 04:31:21;;;;;;;0.50;0.50;;;;;;;4.87;82.21;96269.22;5023822;28;20499;-62
2024/02/10 04:33:52;;;;;;;0.50;0.50;;;;;;;4.77;82.53;96280.69;5023654;28;20127;-67
2024/02/10 04:36:21;;;;;;;0.40;0.40;;;;;;;4.21;81.16;96164.81;5023795;28;20079;-62
2024/02/10 04:38:48;;;;;;;0.50;0.50;;;;;;;4.94;81.47;96269.38;5023552;28;20056;-65
2024/02/10 04:41:15;;;;;;;0.50;0.50;;;;;;;4.99;81.35;96260.88;5023739;28;20068;-62
2024/02/10 04:43:41;;;;;;;0.40;0.40;;;;;;;5.05;81.35;96259.47;5006177;28;20057;-61
2024/02/10 04:46:10;;;;;;;0.50;0.50;;;;;;;4.81;81.70;96260.41;5023896;28;20457;-61
2024/02/10 04:48:37;;;;;;;0.50;0.50;;;;;;;4.88;82.08;96270.78;5022382;28;20049;-67
2024/02/10 04:51:04;;;;;;;0.50;0.50;;;;;;;4.96;82.47;96267.88;5023361;28;20049;-62
2024/02/10 04:53:31;;;;;;;0.40;0.40;;;;;;;4.94;82.62;96259.19;5005499;28;20085;-68
2024/02/10 04:55:57;;;;;;;0.55;0.55;;;;;;;4.98;82.50;96251.06;5023654;28;20576;-63
2024/02/10 04:58:24;;;;;;;0.50;0.50;;;;;;;4.86;82.35;96218.22;5005547;28;20049;-62
2024/02/10 05:00:51;;;;;;;0.50;0.50;;;;;;;5.02;82.15;96243.72;5005802;28;20115;-62
2024/02/10 05:03:18;;;;;;;0.40;0.40;;;;;;;4.82;82.07;96207.13;5006013;28;20073;-63
2024/02/10 05:05:45;;;;;;;0.50;0.50;;;;;;;5.12;81.37;96227.50;5006868;28;20073;-68
2024/02/10 05:08:12;;;;;;;0.40;0.40;;;;;;;4.74;80.42;96166.19;5027625;28;20065;-68
2024/02/10 05:10:40;;;;;;;0.40;0.40;;;;;;;4.54;80.77;96176.25;5027263;28;20524;-67
2024/02/10 05:13:07;;;;;;;0.50;0.50;;;;;;;4.69;82.40;96242.09;5027149;28;20434;-62
2024/02/10 05:15:34;;;;;;;0.50;0.50;;;;;;;4.84;82.17;96237.00;5009299;28;20141;-69
2024/02/10 05:18:04;;;;;;;0.50;0.50;;;;;;;4.80;82.24;96236.09;5027261;28;20057;-68
2024/02/10 05:20:32;;;;;;;0.40;0.40;;;;;;;4.21;82.51;96159.31;5027310;28;20049;-64
2024/02/10 05:23:00;;;;;;;0.50;0.50;;;;;;;4.83;82.50;96241.66;5027449;28;20496;-63
2024/02/10 05:25:34;;;;;;;0.50;0.50;;;;;;;3.88;82.67;96124.00;5009710;28;20108;-62
2024/02/10 05:28:02;;;;;;;0.40;0.40;;;;;;;4.80;82.92;96258.03;5027168;28;20073;-67
2024/02/10 05:30:29;;;;;;;0.50;0.50;;;;;;;4.62;82.70;96225.47;5009066;28;20171;-68
2024/02/10 05:32:59;;;;;;;0.50;0.50;;;;;;;4.94;83.19;96263.88;5009710;28;20168;-68
2024/02/10 05:35:29;;;;;;;0.40;0.40;;;;;;;4.99;82.91;96260.88;5009300;28;20061;-68
2024/02/10 05:37:58;;;;;;;0.50;0.50;;;;;;;5.09;83.08;96260.38;5027053;28;20052;-68
2024/02/10 05:40:27;;;;;;;0.50;0.50;;;;;;;5.17;82.87;96264.88;5009011;28;20049;-68
2024/02/10 05:42:58;;;;;;;0.50;0.50;;;;;;;4.98;81.96;96218.13;5009364;28;20126;-68
2024/02/10 05:45:28;;;;;;;0.40;0.40;;;;;;;4.55;81.88;96159.44;5026454;28;20058;-63
2024/02/10 05:47:55;;;;;;;0.40;0.40;;;;;;;4.23;82.09;96103.03;5009253;28;20049;-68
2024/02/10 05:50:24;;;;;;;0.50;0.50;;;;;;;5.28;81.93;96236.53;5026272;28;20057;-63
2024/02/10 05:52:52;;;;;;;0.50;0.50;;;;;;;5.44;81.78;96251.03;5026661;28;20458;-62
2024/02/10 05:55:26;;;;;;;0.50;0.50;;;;;;;5.26;82.64;96263.56;5026153;28;20061;-63
2024/02/10 05:58:03;;;;;;;0.50;0.50;;;;;;;5.40;80.47;96265.84;5026704;28;20050;-62
2024/02/10 06:00:31;;;;;;;0.50;0.50;;;;;;;5.32;79.55;96280.53;5008859;28;20399;-68
2024/02/10 06:03:02;;;;;;;0.40;0.40;;;;;;;5.30;79.88;96272.66;5008833;28;20053;-68
2024/02/10 06:05:30;;;;;;;0.50;0.50;;;;;;;5.34;80.30;96270.00;5008777;28;20061;-68
2024/02/10 06:07:57;;;;;;;0.50;0.50;;;;;;;5.57;79.38;96281.94;5026537;28;20042;-61
2024/02/10 06:10:24;;;;;;;0.45;0.45;;;;;;;2.70;79.47;95870.53;5026633;28;20424;-68
2024/02/10 06:12:52;;;;;;;0.50;0.50;;;;;;;4.88;80.46;96210.44;5008528;28;20053;-68
2024/02/10 06:15:20;;;;;;;0.45;0.45;;;;;;;5.41;80.30;96311.34;5026641;28;20240;-62
2024/02/10 06:17:55;;;;;;;0.50;0.50;;;;;;;5.60;79.13;96281.22;5008424;28;20060;-63
2024/02/10 06:20:25;;;;;;;0.50;0.50;;;;;;;5.66;78.35;96279.78;5008678;28;20065;-62
2024/02/10 06:22:54;;;;;;;0.50;0.50;;;;;;;5.08;79.17;96203.88;5026619;28;20057;-62
2024/02/10 06:25:26;;;;;;;0.50;0.50;;;;;;;5.68;79.66;96288.47;5015689;28;20436;-62
2024/02/10 06:27:55;;;;;;;0.50;0.50;;;;;;;5.93;79.82;96287.09;4994129;28;20516;-62
2024/02/10 06:30:25;;;;;;;0.40;0.40;;;;;;;5.54;78.55;96200.25;5026418;28;20058;-62
2024/02/10 06:32:53;;;;;;;0.50;0.50;;;;;;;6.21;79.08;96287.75;5008614;28;20186;-62
2024/02/10 06:35:20;;;;;;;0.50;0.50;;;;;;;6.39;78.81;96299.91;5007900;28;20080;-63
2024/02/10 06:37:49;;;;;;;0.50;0.50;;;;;;;6.50;78.86;96298.16;5008573;28;20123;-69
2024/02/10 06:40:17;;;;;;;0.60;0.60;;;;;;;6.81;77.55;96297.22;5008260;28;20132;-69
2024/02/10 06:42:48;;;;;;;0.50;0.50;;;;;;;6.23;76.83;96205.66;5026165;28;20053;-61
2024/02/10 06:45:16;;;;;;;0.50;0.50;;;;;;;6.69;76.19;96262.38;5008280;28;20071;-61
2024/02/10 06:47:46;;;;;;;0.60;0.60;;;;;;;7.02;76.41;96309.41;5025946;28;20045;-68
2024/02/10 06:50:14;;;;;;;0.60;0.60;;;;;;;6.66;77.90;96300.84;5025396;28;20089;-61
2024/02/10 06:52:42;;;;;;;0.60;0.60;;;;;;;6.74;78.90;96306.13;5025881;28;20152;-62
2024/02/10 06:55:12;;;;;;;0.50;0.50;;;;;;;6.90;78.60;96328.84;5026042;28;20084;-62
2024/02/10 06:57:44;;;;;;;0.50;0.50;;;;;;;6.61;77.84;96277.16;5025580;28;20045;-63
2024/02/10 07:00:15;;;;;;;0.60;0.60;;;;;;;7.04;76.93;96340.13;5024340;28;20421;-64
2024/02/10 07:02:44;;;;;;;0.60;0.60;;;;;;;6.95;77.75;96342.34;5025125;28;20885;-67
2024/02/10 07:05:19;;;;;;;0.60;0.60;;;;;;;7.08;77.74;96329.97;5025391;28;20527;-62
2024/02/10 07:07:48;;;;;;;0.60;0.60;;;;;;;6.45;80.52;96334.22;5025460;28;20076;-68
2024/02/10 07:10:17;;;;;;;0.60;0.60;;;;;;;6.25;82.44;96334.53;5025114;28;20053;-70
2024/02/10 07:12:47;;;;;;;0.57;0.57;;;;;;;6.37;81.18;96282.19;5037803;28;20376;-72
2024/02/10 07:15:18;;;;;;;0.52;0.52;;;;;;;6.12;81.12;96205.47;5026426;28;21209;-69
2024/02/10 07:17:49;;;;;;;0.60;0.60;;;;;;;6.36;79.26;96220.88;5044343;28;20048;-65
2024/02/10 07:20:20;;;;;;;0.60;0.60;;;;;;;6.58;78.72;96217.38;5036512;28;20440;-65
2024/02/10 07:22:56;;;;;;;0.60;0.60;;;;;;;7.53;77.19;96330.00;5023318;28;20389;-61
2024/02/10 07:25:25;;;;;;;0.63;0.63;;;;;;;7.68;77.15;96317.28;5023363;28;20327;-61
2024/02/10 07:27:53;;;;;;;0.60;0.60;;;;;;;7.98;76.34;96317.34;5024398;28;20064;-61
2024/02/10 07:30:20;;;;;;;0.68;0.68;;;;;;;7.94;75.56;96277.88;5022443;28;20148;-71
2024/02/10 07:32:48;;;;;;;0.63;0.63;;;;;;;8.10;74.63;96272.97;5006010;28;20041;-66
2024/02/10 07:35:16;;;;;;;0.60;0.60;;;;;;;8.49;74.03;96293.63;5023227;28;20404;-62
2024/02/10 07:37:44;;;;;;;0.70;0.70;;;;;;;8.79;71.44;96283.34;5024719;28;20056;-66
2024/02/10 07:40:11;;;;;;;0.70;0.70;;;;;;;8.52;70.36;96182.50;5024485;28;20054;-65
2024/02/10 07:42:39;;;;;;;0.70;0.70;;;;;;;9.61;69.40;96308.66;5024171;28;20617;-63
2024/02/10 07:45:06;;;;;;;0.70;0.70;;;;;;;9.00;71.56;96322.25;5006124;28;20053;-59
2024/02/10 07:47:33;;;;;;;0.70;0.70;;;;;;;9.20;72.34;96309.84;5023740;28;20054;-61
2024/02/10 07:50:00;;;;;;;0.70;0.70;;;;;;;8.73;74.06;96312.47;5023252;28;20068;-60
2024/02/10 07:52:31;;;;;;;0.70;0.70;;;;;;;8.54;76.29;96301.59;5006086;28;20053;-61
2024/02/10 07:54:58;;;;;;;0.80;0.80;;;;;;;9.42;73.85;96313.63;5006451;28;20062;-61
2024/02/10 07:57:26;;;;;;;0.77;0.77;;;;;;;10.07;72.19;96309.84;5023644;28;20052;-61
2024/02/10 07:59:55;;;;;;;0.80;0.80;;;;;;;10.47;68.41;96298.66;5023918;28;20053;-61
2024/02/10 08:02:25;;;;;;;0.88;0.88;;;;;;;10.71;67.69;96308.25;5023448;28;20059;-61
2024/02/10 08:04:54;;;;;;;0.90;0.90;;;;;;;10.79;67.04;96304.34;5005673;28;20495;-61
2024/02/10 08:07:23;;;;;;;0.90;0.90;;;;;;;10.64;65.81;96264.69;5023281;28;20053;-64
2024/02/10 08:09:52;;;;;;;0.88;0.88;;;;;;;11.27;64.44;96302.13;5023536;28;20085;-70
2024/02/10 08:12:26;;;;;;;0.80;0.80;;;;;;;10.68;62.93;96187.94;5029969;28;20044;-67
2024/02/10 08:14:54;;;;;;;1.00;1.00;;;;;;;11.67;62.54;96321.22;5042097;28;20053;-61
2024/02/10 08:17:24;;;;;;;0.98;0.98;;;;;;;11.58;62.55;96254.22;5025341;28;20369;-60
2024/02/10 08:19:51;;;;;;;1.00;1.00;;;;;;;11.52;61.01;96241.94;5043247;28;20080;-62
2024/02/10 08:22:18;;;;;;;1.00;1.00;;;;;;;12.36;60.00;96313.28;5038460;28;20665;-62
2024/02/10 08:24:47;;;;;;;1.00;1.00;;;;;;;12.73;60.18;96311.59;5022264;28;21834;-65
2024/02/10 08:27:15;;;;;;;1.10;1.10;;;;;;;13.06;59.07;96318.63;5023186;28;20159;-62
2024/02/10 08:29:42;;;;;;;1.00;1.00;;;;;;;13.30;57.61;96299.06;5023420;28;20234;-64
2024/02/10 08:32:16;;;;;;;1.40;1.40;;;;;;;12.72;56.59;96200.84;5040808;28;20045;-66
2024/02/10 08:34:43;;;;;;;1.17;1.17;;;;;;;13.22;57.98;96266.91;5035409;28;20466;-63
2024/02/10 08:37:12;;;;;;;1.00;1.00;;;;;;;13.80;56.73;96307.09;5008427;28;20239;-63
2024/02/10 08:39:43;;;;;;;1.10;1.10;;;;;;;14.20;56.57;96297.97;5033457;28;20091;-64
2024/02/10 08:42:15;;;;;;;1.10;1.10;;;;;;;14.01;57.26;96304.13;5024575;28;20527;-62
2024/02/10 08:44:45;;;;;;;1.20;1.20;;;;;;;14.29;56.73;96295.56;5011952;28;20365;-64
2024/02/10 08:47:13;;;;;;;1.27;1.27;;;;;;;14.86;55.31;96290.94;5010090;28;20057;-66
2024/02/10 08:49:40;;;;;;;1.25;1.25;;;;;;;15.13;55.04;96300.19;5036683;28;20882;-60
2024/02/10 08:52:15;;;;;;;1.20;1.20;;;;;;;14.70;55.42;96297.09;5023424;28;20049;-59
2024/02/10 08:54:44;;;;;;;1.30;1.30;;;;;;;14.87;54.42;96253.50;5004300;28;20563;-67
2024/02/10 08:57:13;;;;;;;1.40;1.40;;;;;;;15.37;53.80;96287.09;5005675;28;20045;-62
2024/02/10 08:59:48;;;;;;;1.40;1.40;;;;;;;15.27;54.88;96294.41;5023253;28;20076;-63
2024/02/10 09:02:16;;;;;;;1.10;1.10;;;;;;;14.31;55.74;96240.19;5022919;28;20052;-63
2024/02/10 09:04:44;;;;;;;1.10;1.10;;;;;;;14.27;56.34;96214.38;5003603;28;20798;-65
2024/02/10 09:07:12;;;;;;;1.30;1.30;;;;;;;15.03;55.52;96273.22;5038796;28;20561;-63
2024/02/10 09:09:42;;;;;;;1.33;1.33;;;;;;;14.03;55.09;96137.44;5024580;28;20144;-62
2024/02/10 09:12:09;;;;;;;1.23;1.23;;;;;;;14.59;54.84;96159.09;5023869;28;20049;-63
2024/02/10 09:14:36;;;;;;;1.27;1.27;;;;;;;15.25;54.51;96257.78;5021527;28;20045;-63
2024/02/10 09:17:03;;;;;;;1.25;1.25;;;;;;;15.21;54.78;96259.81;5033437;28;20132;-59
2024/02/10 09:19:30;;;;;;;1.23;1.23;;;;;;;15.47;53.84;96231.19;5030272;28;20055;-63
2024/02/10 09:21:57;;;;;;;1.33;1.33;;;;;;;15.35;53.18;96173.09;5028675;28;20128;-68
2024/02/10 09:24:26;;;;;;;1.40;1.40;;;;;;;16.12;52.56;96311.50;5035025;28;20432;-63
2024/02/10 09:26:55;;;;;;;1.63;1.63;;;;;;;15.98;51.25;96194.41;5024365;28;20077;-62
2024/02/10 09:29:22;;;;;;;1.60;1.60;;;;;;;17.03;50.09;96213.16;5028194;28;20077;-64
2024/02/10 09:31:56;;;;;;;1.75;1.75;;;;;;;17.50;48.54;96248.91;5025312;28;20056;-62
2024/02/10 09:34:23;;;;;;;1.63;1.63;;;;;;;16.49;48.65;96154.75;5011357;28;20048;-68
2024/02/10 09:36:51;;;;;;;1.58;1.58;;;;;;;16.86;48.10;96161.97;5028006;28;20057;-61
2024/02/10 09:39:18;;;;;;;1.90;1.90;;;;;;;17.58;47.60;96243.94;5014573;28;20756;-66
2024/02/10 09:41:45;;;;;;;1.70;1.70;;;;;;;16.77;48.45;96180.56;5022095;28;20161;-60
2024/02/10 09:44:15;;;;;;;1.67;1.67;;;;;;;17.07;48.09;96264.25;5030048;28;20195;-60
2024/02/10 09:46:42;;;;;;;1.80;1.80;;;;;;;16.47;47.98;96201.91;5022352;28;20060;-62
2024/02/10 09:49:12;;;;;;;1.63;1.63;;;;;;;16.80;48.79;96266.41;5005570;28;20080;-62
2024/02/10 09:51:42;;;;;;;1.55;1.55;;;;;;;14.51;49.51;95968.09;5033292;28;20145;-62
2024/02/10 09:54:11;;;;;;;1.55;1.55;;;;;;;16.54;49.02;96238.13;5023695;28;20504;-69
2024/02/10 09:56:38;;;;;;;1.60;1.60;;;;;;;16.82;48.30;96258.38;5010335;28;20064;-61
2024/02/10 09:59:18;;;;;;;1.40;1.40;;;;;;;16.86;47.79;96217.13;5008613;28;20053;-62
2024/02/10 10:01:45;;;;;;;1.48;1.48;;;;;;;16.50;47.55;96170.28;5023809;28;20053;-64
2024/02/10 10:04:12;;;;;;;1.67;1.67;;;;;;;17.14;47.72;96241.69;5033126;28;20049;-63
2024/02/10 10:06:46;;;;;;;1.50;1.50;;;;;;;16.89;48.14;96247.03;5045478;28;20138;-65
2024/02/10 10:09:17;;;;;;;1.40;1.40;;;;;;;16.75;49.96;96236.13;5025738;28;20048;-63
2024/02/10 10:11:46;;;;;;;1.50;1.50;;;;;;;16.95;48.84;96200.53;5044462;28;20327;-71
2024/02/10 10:14:16;;;;;;;1.80;1.80;;;;;;;17.31;48.61;96235.72;5032673;28;20397;-62
2024/02/10 10:17:04;;;;;;;1.67;1.67;;;;;;;17.06;48.52;96189.91;5007777;28;20064;-62
2024/02/10 10:19:31;;;;;;;1.50;1.50;;;;;;;16.48;49.46;96228.66;5045341;28;20118;-64
2024/02/10 10:21:58;;;;;;;1.55;1.55;;;;;;;16.57;49.47;96219.69;5045477;28;20049;-64
2024/02/10 10:24:27;;;;;;;1.65;1.65;;;;;;;16.56;49.07;96210.53;5046194;28;20132;-64
2024/02/10 10:26:56;;;;;;;1.80;1.80;;;;;;;16.51;49.84;96227.81;5045871;28;20144;-64
2024/02/10 10:29:23;;;;;;;1.63;1.63;;;;;;;16.46;49.09;96147.22;5045609;28;20535;-63
2024/02/10 10:31:53;;;;;;;1.60;1.60;;;;;;;17.03;48.66;96227.16;5045922;28;20067;-64
2024/02/10 10:34:22;;;;;;;1.60;1.60;;;;;;;16.83;49.45;96237.56;5046006;28;20057;-64
2024/02/10 10:36:53;;;;;;;1.60;1.60;;;;;;;16.89;48.57;96233.03;5045748;28;20060;-64
2024/02/10 10:39:22;;;;;;;1.60;1.60;;;;;;;16.99;47.55;96235.63;5045763;28;20430;-64
2024/02/10 10:41:51;;;;;;;1.70;1.70;;;;;;;17.09;47.02;96242.19;5046147;28;20149;-64
2024/02/10 10:44:21;;;;;;;1.40;1.40;;;;;;;16.82;47.54;96222.00;5046155;28;20080;-63
2024/02/10 10:46:48;;;;;;;1.50;1.50;;;;;;;16.92;47.91;96224.59;5046144;28;20053;-63
2024/02/10 10:49:15;;;;;;;1.70;1.70;;;;;;;16.85;46.29;96095.28;5024003;28;20150;-63
2024/02/10 10:52:01;;;;;;;1.73;1.73;;;;;;;17.84;45.47;96223.31;5025916;28;20072;-63
2024/02/10 10:54:39;;;;;;;1.80;1.80;;;;;;;17.90;45.54;96215.97;5025456;28;20049;-65
2024/02/10 10:57:16;;;;;;;1.52;1.52;;;;;;;17.93;45.67;96215.06;5025685;28;20060;-64
2024/02/10 11:00:11;;;;;;;1.80;1.80;;;;;;;17.66;46.46;96209.75;5024365;28;20168;-64
2024/02/10 11:02:50;;;;;;;1.70;1.70;;;;;;;18.12;45.76;96219.78;5023836;28;20135;-64
2024/02/10 11:05:19;;;;;;;1.70;1.70;;;;;;;18.08;45.67;96213.50;5025142;28;20064;-64
2024/02/10 11:07:49;;;;;;;1.92;1.92;;;;;;;18.32;45.35;96220.47;5025777;28;20384;-64
2024/02/10 11:10:36;;;;;;;1.83;1.83;;;;;;;17.60;46.70;96207.88;5023580;28;20057;-65
2024/02/10 11:13:04;;;;;;;1.80;1.80;;;;;;;17.31;47.74;96209.75;5025042;28;20651;-64
2024/02/10 11:15:31;;;;;;;1.67;1.67;;;;;;;16.75;48.27;96197.78;5012037;28;20174;-64
2024/02/10 11:18:02;;;;;;;1.60;1.60;;;;;;;16.80;48.20;96211.25;5005047;28;20050;-64
2024/02/10 11:20:38;;;;;;;1.50;1.50;;;;;;;16.75;47.43;96085.09;4987862;28;20050;-64
2024/02/10 11:23:13;;;;;;;1.70;1.70;;;;;;;17.80;46.70;96214.19;5004932;28;20599;-65
2024/02/10 11:25:41;;;;;;;1.80;1.80;;;;;;;17.68;46.30;96158.88;5004837;28;20058;-65
2024/02/10 11:28:20;;;;;;;1.65;1.65;;;;;;;18.14;45.19;96194.94;5003636;28;20062;-64
2024/02/10 11:30:48;;;;;;;1.95;1.95;;;;;;;17.87;45.31;96160.78;5004901;28;20136;-64
2024/02/10 11:33:17;;;;;;;1.80;1.80;;;;;;;18.69;44.26;96183.41;5004159;28;20131;-65
2024/02/10 11:35:46;;;;;;;1.90;1.90;;;;;;;18.37;43.93;96121.78;5004914;28;20054;-65
2024/02/10 11:38:14;;;;;;;2.00;2.00;;;;;;;18.41;43.81;96153.38;5004482;28;20454;-71
2024/02/10 11:40:42;;;;;;;2.00;2.00;;;;;;;18.18;44.21;96187.19;5005409;28;20050;-69
2024/02/10 11:43:11;;;;;;;1.73;1.73;;;;;;;18.42;43.51;96191.38;5014650;28;20689;-68
2024/02/10 11:45:38;;;;;;;1.90;1.90;;;;;;;18.38;43.14;96185.09;5005852;28;20128;-61
2024/02/10 11:48:08;;;;;;;1.92;1.92;;;;;;;18.02;43.42;96156.38;5007967;28;20042;-64